Time;durP1;ratioP1;P1;durP2;ratioP2;P2;SDS_P1;SDS_P2;PMS_P1;PMS_P2;Temp;Humidity;BMP_temperature;BMP_pressure;BME280_temperature;BME280_humidity;BME280_pressure;Samples;Min_cycle;Max_cycle;Signal;HPM_P1;HPM_P2
2023/12/07 00:02:14;;;;;;;90.80;39.20;;;;;;;0.43;71.50;99011.92;233900;213;137754;-56
2023/12/07 00:07:18;;;;;;;96.80;40.70;;;;;;;0.41;71.45;99010.77;234345;215;150955;-56
2023/12/07 00:12:21;;;;;;;95.80;41.30;;;;;;;0.41;71.65;99017.73;234274;215;139000;-56
2023/12/07 00:17:25;;;;;;;94.60;43.10;;;;;;;0.49;71.64;99019.47;234117;214;137404;-57
2023/12/07 00:22:28;;;;;;;99.70;43.20;;;;;;;0.58;71.59;99020.86;234358;215;149440;-58
2023/12/07 00:27:32;;;;;;;97.60;42.50;;;;;;;0.60;71.40;99015.23;234095;213;139422;-61
2023/12/07 00:32:36;;;;;;;96.00;43.00;;;;;;;0.59;71.39;99014.55;234410;216;137770;-58
2023/12/07 00:37:39;;;;;;;96.20;42.60;;;;;;;0.59;71.44;99017.17;234281;215;149968;-56
2023/12/07 00:42:43;;;;;;;96.10;40.70;;;;;;;0.62;71.50;99014.81;234327;215;139471;-57
2023/12/07 00:47:46;;;;;;;99.40;41.70;;;;;;;0.63;71.51;99016.20;234243;215;138029;-56
2023/12/07 00:52:49;;;;;;;97.70;42.40;;;;;;;0.62;71.50;99013.94;234258;208;149593;-55
2023/12/07 00:57:52;;;;;;;103.00;43.80;;;;;;;0.62;71.65;99018.14;234004;215;138688;-57
2023/12/07 01:02:55;;;;;;;97.70;43.10;;;;;;;0.59;71.84;99015.94;234286;215;138307;-57
2023/12/07 01:07:59;;;;;;;94.30;43.50;;;;;;;0.56;71.83;99016.69;234274;207;150871;-56
2023/12/07 01:13:02;;;;;;;91.10;39.50;;;;;;;0.53;71.91;99022.52;233848;215;139419;-57
2023/12/07 01:18:06;;;;;;;86.10;40.90;;;;;;;0.52;72.17;99022.58;234214;215;137180;-59
2023/12/07 01:23:09;;;;;;;80.00;38.10;;;;;;;0.56;72.17;99029.96;234302;215;149558;-60
2023/12/07 01:28:16;;;;;;;93.10;41.20;;;;;;;0.59;72.12;99034.96;234281;208;138814;-58
2023/12/07 01:33:19;;;;;;;92.10;39.90;;;;;;;0.65;72.04;99029.76;234198;215;138618;-55
2023/12/07 01:38:22;;;;;;;88.00;40.10;;;;;;;0.75;71.93;99026.91;234270;215;149410;-58
2023/12/07 01:43:26;;;;;;;92.40;41.70;;;;;;;0.83;71.73;99024.98;233931;215;139524;-59
2023/12/07 01:48:30;;;;;;;82.30;40.20;;;;;;;0.88;71.53;99022.96;234431;215;137607;-56
2023/12/07 01:53:34;;;;;;;87.30;40.60;;;;;;;0.85;71.51;99022.67;233704;215;149417;-56
2023/12/07 01:58:37;;;;;;;84.60;39.40;;;;;;;0.85;71.54;99017.61;234307;214;138938;-58
2023/12/07 02:03:40;;;;;;;77.40;39.00;;;;;;;0.82;71.44;99013.83;234353;208;139694;-57
2023/12/07 02:08:44;;;;;;;78.10;38.50;;;;;;;0.84;71.62;99010.48;234319;213;149311;-57
2023/12/07 02:13:48;;;;;;;73.10;35.90;;;;;;;0.86;71.50;99013.40;234233;215;138993;-59
2023/12/07 02:19:28;;;;;;;80.30;37.40;;;;;;;0.82;71.31;99011.57;234311;215;136881;-58
2023/12/07 02:24:33;;;;;;;76.60;37.00;;;;;;;0.73;71.52;99015.09;233981;214;150172;-56
2023/12/07 02:29:37;;;;;;;;;;;;;;;0.67;71.89;99015.06;233465;213;138625;-57
2023/12/07 02:34:40;;;;;;;77.80;37.00;;;;;;;0.61;71.94;99017.63;233989;213;134641;-57
2023/12/07 02:39:43;;;;;;;78.10;39.20;;;;;;;0.55;72.26;99017.59;234303;215;152274;-57
2023/12/07 02:44:46;;;;;;;79.30;37.60;;;;;;;0.54;72.34;99025.29;234346;215;139779;-56
2023/12/07 02:49:50;;;;;;;80.80;38.60;;;;;;;0.52;72.48;99029.34;234399;215;136986;-55
2023/12/07 02:54:53;;;;;;;74.60;35.40;;;;;;;0.55;72.51;99035.40;234332;215;149422;-57
2023/12/07 02:59:57;;;;;;;71.60;36.10;;;;;;;0.63;72.46;99039.05;233702;215;138812;-56
2023/12/07 03:05:01;;;;;;;71.80;35.20;;;;;;;0.71;72.48;99043.60;234248;213;137058;-56
2023/12/07 03:10:05;;;;;;;72.60;36.20;;;;;;;0.77;72.35;99040.15;234194;215;149603;-56
2023/12/07 03:15:10;;;;;;;76.30;37.60;;;;;;;0.81;72.07;99044.95;234286;215;138869;-57
2023/12/07 03:20:13;;;;;;;74.20;38.30;;;;;;;0.79;72.08;99044.14;234280;215;137856;-57
2023/12/07 03:25:16;;;;;;;76.50;37.90;;;;;;;0.76;71.98;99046.45;234436;215;149393;-57
2023/12/07 03:30:19;;;;;;;74.90;36.90;;;;;;;0.72;72.08;99050.40;234145;213;141000;-55
2023/12/07 03:35:23;;;;;;;73.70;36.20;;;;;;;0.68;72.41;99054.83;233954;213;137545;-56
2023/12/07 03:40:26;;;;;;;347.70;212.90;;;;;;;0.68;72.73;99053.97;234333;215;150240;-54
2023/12/07 03:45:29;;;;;;;92.60;46.20;;;;;;;0.85;73.13;99050.11;234318;215;138715;-55
2023/12/07 03:50:32;;;;;;;69.40;36.30;;;;;;;0.95;72.92;99047.79;234261;213;137087;-55
2023/12/07 03:55:36;;;;;;;74.10;36.20;;;;;;;0.95;72.39;99051.09;234344;215;149521;-55
2023/12/07 04:00:39;;;;;;;71.80;35.80;;;;;;;0.88;72.49;99049.52;234493;212;140365;-55
2023/12/07 04:05:43;;;;;;;75.20;35.60;;;;;;;0.84;72.51;99056.74;233860;213;138148;-57
2023/12/07 04:10:46;;;;;;;70.80;35.40;;;;;;;0.88;72.78;99061.39;234018;208;149983;-59
2023/12/07 04:15:49;;;;;;;67.50;35.80;;;;;;;1.03;73.68;99060.68;234337;215;140988;-53
2023/12/07 04:20:53;;;;;;;68.00;34.60;;;;;;;1.17;72.39;99060.52;234188;213;136908;-55
2023/12/07 04:25:56;;;;;;;67.60;34.90;;;;;;;1.16;72.18;99065.98;234448;214;150332;-55
2023/12/07 04:31:00;;;;;;;71.90;35.80;;;;;;;1.15;72.13;99064.59;234409;208;139623;-56
2023/12/07 04:36:04;;;;;;;72.80;37.10;;;;;;;1.12;72.24;99071.48;234113;213;138064;-53
2023/12/07 04:41:07;;;;;;;68.30;34.60;;;;;;;1.09;72.36;99076.29;234327;215;149202;-55
2023/12/07 04:46:11;;;;;;;75.10;34.70;;;;;;;1.07;72.50;99081.39;234215;216;139755;-55
2023/12/07 04:51:16;;;;;;;;;;;;;;;1.07;72.49;99079.64;234280;213;137224;-56
2023/12/07 04:56:20;;;;;;;70.80;34.00;;;;;;;1.06;72.66;99079.33;234341;215;149944;-55
2023/12/07 05:01:23;;;;;;;373.20;253.40;;;;;;;1.06;72.96;99080.36;234333;215;138778;-54
2023/12/07 05:06:26;;;;;;;87.00;44.80;;;;;;;1.19;73.21;99082.69;234034;214;137407;-54
2023/12/07 05:11:29;;;;;;;76.10;37.50;;;;;;;1.15;72.61;99080.66;234304;215;149679;-55
2023/12/07 05:16:33;;;;;;;72.00;35.00;;;;;;;1.12;72.66;99080.91;234263;215;138902;-56
2023/12/07 05:21:37;;;;;;;78.20;37.70;;;;;;;1.09;72.75;99090.07;234334;215;138172;-55
2023/12/07 05:26:46;;;;;;;70.90;34.50;;;;;;;1.07;72.92;99099.73;234339;215;149203;-56
2023/12/07 05:31:52;;;;;;;73.40;35.90;;;;;;;1.15;72.89;99104.79;234348;213;138714;-57
2023/12/07 05:36:55;;;;;;;71.20;35.60;;;;;;;1.27;72.68;99101.73;234103;208;137073;-58
2023/12/07 05:41:59;;;;;;;72.60;36.10;;;;;;;1.34;72.37;99108.89;234021;208;149499;-55
2023/12/07 05:47:02;;;;;;;66.70;33.80;;;;;;;1.41;72.33;99114.67;234349;215;139517;-54
2023/12/07 05:52:05;;;;;;;71.50;33.60;;;;;;;1.43;72.03;99117.59;234290;213;136838;-57
2023/12/07 05:57:09;;;;;;;68.00;34.10;;;;;;;1.41;72.18;99126.54;234261;215;150267;-57
2023/12/07 06:02:12;;;;;;;68.70;34.10;;;;;;;1.34;72.08;99129.52;234325;213;140200;-55
2023/12/07 06:07:15;;;;;;;79.80;39.10;;;;;;;1.32;72.40;99130.25;234306;215;137900;-55
2023/12/07 06:12:19;;;;;;;91.80;42.10;;;;;;;1.27;72.27;99138.23;234346;213;149524;-57
2023/12/07 06:17:22;;;;;;;97.00;42.70;;;;;;;1.20;72.21;99143.81;234225;215;138899;-56
2023/12/07 06:22:25;;;;;;;89.00;42.50;;;;;;;1.14;72.45;99143.60;234338;213;137244;-55
2023/12/07 06:27:28;;;;;;;84.20;41.30;;;;;;;1.14;72.57;99147.78;234227;215;149532;-58
2023/12/07 06:32:32;;;;;;;93.10;43.20;;;;;;;1.17;72.48;99154.71;234230;215;138719;-58
2023/12/07 06:37:36;;;;;;;95.80;43.40;;;;;;;1.22;72.79;99156.02;234289;215;137706;-58
2023/12/07 06:42:39;;;;;;;87.90;42.80;;;;;;;1.27;72.61;99166.55;233335;212;149440;-55
2023/12/07 06:47:43;;;;;;;85.80;40.40;;;;;;;1.27;72.55;99168.30;233530;212;139839;-56
2023/12/07 06:52:46;;;;;;;86.60;40.80;;;;;;;1.24;72.43;99177.45;234044;212;136956;-55
2023/12/07 06:57:50;;;;;;;88.20;40.40;;;;;;;1.20;72.38;99177.73;234106;215;149809;-57
2023/12/07 07:02:53;;;;;;;82.80;40.30;;;;;;;1.16;72.35;99175.00;233985;213;138622;-57
2023/12/07 07:07:56;;;;;;;93.00;42.40;;;;;;;1.13;72.16;99188.70;234180;213;137708;-55
2023/12/07 07:13:04;;;;;;;87.10;42.70;;;;;;;1.16;72.23;99190.40;234046;212;150181;-55
2023/12/07 07:18:07;;;;;;;87.80;43.70;;;;;;;1.13;72.15;99195.88;234446;213;140389;-55
2023/12/07 07:23:11;;;;;;;81.40;40.80;;;;;;;1.13;72.13;99201.95;234310;215;136787;-57
2023/12/07 07:28:14;;;;;;;91.00;44.20;;;;;;;1.11;72.13;99203.08;234356;215;149810;-56
2023/12/07 07:33:17;;;;;;;81.60;40.30;;;;;;;1.15;72.05;99207.00;234317;213;139424;-56
2023/12/07 07:38:20;;;;;;;87.10;45.30;;;;;;;1.20;71.88;99209.88;234290;214;138420;-55
2023/12/07 07:43:24;;;;;;;89.60;44.90;;;;;;;1.24;71.70;99216.27;233412;212;149871;-56
2023/12/07 07:48:27;;;;;;;89.40;43.80;;;;;;;1.26;71.82;99217.95;234380;215;139038;-56
2023/12/07 07:53:30;;;;;;;106.60;51.80;;;;;;;1.33;72.48;99223.57;234278;215;137179;-56
2023/12/07 07:58:34;;;;;;;89.10;46.20;;;;;;;1.38;71.94;99225.20;234191;213;149240;-54
2023/12/07 08:03:37;;;;;;;89.00;44.70;;;;;;;1.38;71.79;99229.76;234211;209;138778;-56
2023/12/07 08:08:40;;;;;;;87.20;44.00;;;;;;;1.35;71.83;99230.34;234271;215;137614;-56
2023/12/07 08:13:43;;;;;;;87.80;44.60;;;;;;;1.37;71.66;99235.90;234257;213;149346;-59
2023/12/07 08:18:47;;;;;;;87.00;43.70;;;;;;;1.37;71.70;99232.76;233692;211;138861;-54
2023/12/07 08:23:51;;;;;;;92.00;46.10;;;;;;;1.39;71.66;99237.06;234042;213;137051;-54
2023/12/07 08:28:54;;;;;;;91.70;44.30;;;;;;;1.36;71.71;99242.21;234192;213;149865;-56
2023/12/07 08:33:57;;;;;;;89.40;43.00;;;;;;;1.39;71.91;99249.65;234146;214;139533;-54
2023/12/07 08:39:01;;;;;;;92.20;44.60;;;;;;;1.46;71.73;99253.34;234196;213;138974;-56
2023/12/07 08:44:05;;;;;;;89.40;46.40;;;;;;;1.55;71.94;99253.14;234001;212;149049;-55
2023/12/07 08:49:08;;;;;;;82.40;44.20;;;;;;;1.62;71.72;99248.63;233858;208;139612;-57
2023/12/07 08:54:12;;;;;;;92.10;47.40;;;;;;;1.78;72.48;99252.46;234117;213;137024;-56
2023/12/07 08:59:15;;;;;;;88.00;44.60;;;;;;;1.83;71.37;99252.69;234263;213;149289;-56
2023/12/07 09:04:18;;;;;;;87.40;44.30;;;;;;;1.78;71.47;99257.39;234203;214;139207;-55
2023/12/07 09:09:22;;;;;;;87.20;44.10;;;;;;;1.76;71.43;99262.13;234143;213;138223;-54
2023/12/07 09:14:26;;;;;;;83.90;44.00;;;;;;;1.75;71.54;99261.46;233728;214;150027;-56
2023/12/07 09:19:29;;;;;;;83.90;45.00;;;;;;;1.73;71.54;99258.17;234114;213;138918;-55
2023/12/07 09:24:33;;;;;;;90.40;46.20;;;;;;;1.74;71.67;99258.16;234267;214;138145;-56
2023/12/07 09:29:37;;;;;;;88.80;44.30;;;;;;;1.74;71.63;99255.36;234195;212;150018;-54
2023/12/07 09:34:40;;;;;;;98.40;46.30;;;;;;;1.78;71.59;99260.16;234161;213;139434;-54
2023/12/07 09:40:54;;;;;;;87.20;46.30;;;;;;;1.91;71.54;99261.07;233065;214;696923;-54
2023/12/07 09:45:57;;;;;;;91.50;46.10;;;;;;;2.02;71.37;99263.63;234202;211;136788;-54
2023/12/07 09:51:02;;;;;;;87.50;44.80;;;;;;;2.12;71.20;99265.46;234443;213;144470;-56
2023/12/07 09:56:05;;;;;;;89.90;45.10;;;;;;;2.24;70.91;99257.84;234484;214;139466;-57
2023/12/07 10:01:09;;;;;;;89.70;45.70;;;;;;;2.32;70.77;99252.20;234616;207;137088;-57
2023/12/07 10:06:12;;;;;;;85.40;44.90;;;;;;;2.37;70.67;99252.42;234328;212;143948;-56
2023/12/07 10:11:15;;;;;;;84.80;44.80;;;;;;;2.46;70.53;99252.02;234597;213;138889;-54
2023/12/07 10:16:19;;;;;;;86.90;45.80;;;;;;;2.52;70.35;99251.17;234510;212;136871;-56
2023/12/07 10:21:32;;;;;;;85.20;45.00;;;;;;;2.54;70.17;99250.05;234588;212;145754;-55
2023/12/07 10:26:38;;;;;;;87.90;44.30;;;;;;;2.52;70.08;99249.26;234579;207;139748;-56
2023/12/07 10:31:43;;;;;;;83.20;43.30;;;;;;;2.51;70.26;99251.73;234599;212;137547;-55
2023/12/07 10:36:48;;;;;;;82.50;45.10;;;;;;;2.54;70.16;99253.40;234669;207;145745;-55
2023/12/07 10:41:56;;;;;;;89.60;46.70;;;;;;;2.64;69.95;99247.34;234696;212;138813;-57
2023/12/07 10:47:00;;;;;;;85.80;46.30;;;;;;;2.71;69.75;99249.80;234534;212;136208;-56
2023/12/07 10:52:07;;;;;;;95.50;48.10;;;;;;;2.73;69.82;99252.72;234524;213;145098;-54
2023/12/07 10:57:13;;;;;;;92.60;48.60;;;;;;;2.77;69.87;99250.87;234281;215;140048;-56
2023/12/07 11:02:18;;;;;;;91.80;47.50;;;;;;;2.82;69.70;99252.64;234406;208;137996;-55
2023/12/07 11:07:27;;;;;;;89.60;47.20;;;;;;;2.88;69.78;99253.36;233807;213;145782;-56
2023/12/07 11:12:39;;;;;;;84.80;48.70;;;;;;;2.92;69.46;99251.52;234459;208;138984;-56
2023/12/07 11:17:55;;;;;;;86.90;48.00;;;;;;;2.90;69.54;99251.02;234248;212;136830;-54
2023/12/07 11:22:59;;;;;;;88.40;46.40;;;;;;;2.92;69.59;99246.79;234409;212;145561;-55
2023/12/07 11:28:04;;;;;;;99.50;51.80;;;;;;;3.04;70.33;99244.70;233929;213;139499;-55
2023/12/07 11:33:09;;;;;;;89.80;47.20;;;;;;;3.13;69.86;99245.84;233947;213;136907;-55
2023/12/07 11:38:14;;;;;;;87.50;49.00;;;;;;;3.12;69.71;99252.16;234210;211;145873;-55
2023/12/07 11:43:18;;;;;;;89.40;47.40;;;;;;;3.11;69.53;99253.62;234274;208;139846;-55
2023/12/07 11:48:22;;;;;;;91.40;47.90;;;;;;;3.13;69.61;99255.31;234423;214;137265;-55
2023/12/07 11:53:29;;;;;;;91.10;48.80;;;;;;;3.18;69.38;99252.16;234294;208;145526;-54
2023/12/07 11:58:35;;;;;;;88.70;48.60;;;;;;;3.24;69.39;99255.69;234413;215;139370;-54
2023/12/07 12:03:43;;;;;;;88.90;47.10;;;;;;;3.27;69.13;99254.02;234518;212;136006;-53
2023/12/07 12:08:46;;;;;;;90.00;46.90;;;;;;;3.25;69.18;99254.77;234333;212;146587;-54
2023/12/07 12:13:49;;;;;;;90.90;46.30;;;;;;;3.23;69.41;99256.77;234368;207;140061;-54
2023/12/07 12:18:53;;;;;;;83.10;46.10;;;;;;;3.20;69.11;99256.68;234363;211;136478;-54
2023/12/07 12:23:57;;;;;;;83.70;45.60;;;;;;;3.18;69.31;99260.59;234446;213;146105;-55
2023/12/07 12:29:02;;;;;;;81.50;45.30;;;;;;;3.16;69.40;99263.65;234353;213;138774;-53
2023/12/07 12:34:12;;;;;;;88.40;46.50;;;;;;;3.07;69.34;99264.92;234159;214;138440;-54
2023/12/07 12:39:16;;;;;;;90.60;47.80;;;;;;;3.03;69.76;99266.80;234279;213;147501;-55
2023/12/07 12:44:32;;;;;;;85.40;44.60;;;;;;;2.99;69.90;99266.73;234454;213;138712;-56
2023/12/07 12:49:46;;;;;;;84.80;45.30;;;;;;;2.99;70.05;99271.46;233753;213;136503;-53
2023/12/07 12:54:49;;;;;;;87.70;45.90;;;;;;;2.99;70.21;99269.70;234460;212;147444;-54
2023/12/07 12:59:53;;;;;;;89.90;47.60;;;;;;;3.04;70.24;99271.14;234606;208;139867;-55
2023/12/07 13:04:56;;;;;;;92.70;48.10;;;;;;;3.10;70.02;99276.05;234358;207;136612;-56
2023/12/07 13:10:03;;;;;;;89.80;47.70;;;;;;;3.14;69.90;99277.89;234049;207;145764;-55
2023/12/07 13:15:07;;;;;;;88.90;47.10;;;;;;;3.12;70.00;99277.60;234203;212;139431;-55
2023/12/07 13:20:11;;;;;;;86.90;47.00;;;;;;;3.07;69.96;99288.58;234371;208;136333;-55
2023/12/07 13:25:15;;;;;;;85.40;45.80;;;;;;;3.04;70.08;99288.84;234333;213;145518;-55
2023/12/07 13:30:18;;;;;;;87.40;47.20;;;;;;;2.97;69.91;99295.52;234237;212;140668;-55
2023/12/07 13:35:22;;;;;;;90.10;47.10;;;;;;;2.91;70.22;99300.95;234434;211;138313;-53
2023/12/07 13:40:26;;;;;;;93.60;49.50;;;;;;;2.85;70.40;99304.79;234056;214;145896;-52
2023/12/07 13:45:30;;;;;;;103.80;53.40;;;;;;;2.91;71.56;99304.97;233902;213;139695;-54
2023/12/07 13:50:34;;;;;;;96.30;47.80;;;;;;;2.99;70.94;99308.61;234552;213;136244;-54
2023/12/07 13:55:37;;;;;;;90.40;48.40;;;;;;;2.97;70.77;99308.67;234398;213;147004;-55
2023/12/07 14:00:46;;;;;;;95.30;50.50;;;;;;;2.95;70.74;99311.00;234533;213;139394;-55
2023/12/07 14:05:49;;;;;;;99.10;51.70;;;;;;;2.95;70.93;99317.13;234489;215;136558;-56
2023/12/07 14:10:52;;;;;;;97.20;51.10;;;;;;;2.97;70.83;99324.42;234430;212;145596;-51
2023/12/07 14:15:56;;;;;;;98.10;52.60;;;;;;;2.94;71.01;99331.36;234317;212;138820;-52
2023/12/07 14:21:19;;;;;;;105.60;54.30;;;;;;;2.93;71.00;99330.68;234150;212;138013;-53
2023/12/07 14:26:35;;;;;;;106.40;52.30;;;;;;;2.92;70.71;99329.48;234224;208;145996;-54
2023/12/07 14:31:39;;;;;;;105.70;53.80;;;;;;;2.84;70.50;99335.45;234104;213;139520;-57
2023/12/07 14:36:44;;;;;;;108.60;54.50;;;;;;;2.76;70.65;99342.48;234508;213;137161;-55
2023/12/07 14:41:52;;;;;;;101.10;52.80;;;;;;;2.73;70.79;99348.02;234531;207;146259;-56
2023/12/07 14:46:56;;;;;;;107.90;55.60;;;;;;;2.68;70.87;99354.10;233492;211;138622;-54
2023/12/07 14:52:00;;;;;;;113.50;58.40;;;;;;;2.65;71.21;99354.54;233968;215;137836;-56
2023/12/07 14:57:08;;;;;;;114.30;56.40;;;;;;;2.62;71.56;99356.18;234400;215;146435;-53
2023/12/07 15:02:11;;;;;;;112.60;57.00;;;;;;;2.62;71.59;99359.34;234177;213;139245;-54
2023/12/07 15:07:16;;;;;;;114.80;57.70;;;;;;;2.65;71.61;99361.88;234431;214;136774;-56
2023/12/07 15:12:19;;;;;;;110.30;57.90;;;;;;;2.68;71.57;99366.01;234472;213;145512;-55
2023/12/07 15:17:23;;;;;;;111.50;56.70;;;;;;;2.69;71.50;99370.56;234368;213;139349;-54
2023/12/07 15:22:27;;;;;;;114.30;55.80;;;;;;;2.68;71.59;99374.41;233881;215;137029;-53
2023/12/07 15:27:31;;;;;;;111.70;55.50;;;;;;;2.66;71.72;99375.36;234320;213;146089;-55
2023/12/07 15:32:34;;;;;;;114.10;57.40;;;;;;;2.65;71.83;99377.83;234366;215;139519;-55
2023/12/07 15:37:37;;;;;;;106.00;55.50;;;;;;;2.64;71.89;99383.11;234453;213;137810;-54
2023/12/07 15:42:41;;;;;;;118.70;59.00;;;;;;;2.61;72.00;99382.48;234551;210;146946;-56
2023/12/07 15:47:45;;;;;;;115.60;58.10;;;;;;;2.61;72.06;99385.11;234228;213;138581;-54
2023/12/07 15:52:49;;;;;;;125.30;60.10;;;;;;;2.64;72.26;99388.18;233503;213;138837;-54
2023/12/07 15:57:52;;;;;;;119.70;61.40;;;;;;;2.68;72.19;99398.58;234095;215;145660;-55
2023/12/07 16:02:57;;;;;;;116.20;61.70;;;;;;;2.73;72.13;99399.50;234299;213;141137;-56
2023/12/07 16:08:02;;;;;;;119.40;61.30;;;;;;;2.74;72.09;99398.61;234497;213;136700;-53
2023/12/07 16:13:06;;;;;;;119.20;63.00;;;;;;;2.73;72.11;99394.63;234478;213;147132;-56
2023/12/07 16:18:09;;;;;;;128.50;64.50;;;;;;;2.69;72.01;99400.85;234317;208;139695;-55
2023/12/07 16:23:12;;;;;;;117.80;60.30;;;;;;;2.67;72.17;99402.30;234397;212;136805;-54
2023/12/07 16:28:16;;;;;;;121.80;63.60;;;;;;;2.64;71.99;99402.91;234450;212;146079;-56
2023/12/07 16:33:19;;;;;;;118.70;61.30;;;;;;;2.57;72.23;99403.05;234650;212;138975;-55
2023/12/07 16:38:23;;;;;;;131.10;64.50;;;;;;;2.54;72.41;99404.52;234589;212;137746;-55
2023/12/07 16:43:26;;;;;;;135.60;67.40;;;;;;;2.51;72.40;99412.30;234534;212;158726;-54
2023/12/07 16:48:30;;;;;;;126.60;62.30;;;;;;;2.53;72.42;99419.44;234552;212;139219;-56
2023/12/07 16:53:33;;;;;;;132.00;65.30;;;;;;;2.56;72.52;99425.33;234561;206;137664;-55
2023/12/07 16:58:37;;;;;;;137.10;66.60;;;;;;;2.59;72.51;99417.55;234525;207;146496;-55
2023/12/07 17:03:40;;;;;;;122.70;65.00;;;;;;;2.61;72.52;99415.23;234360;213;138856;-56
2023/12/07 17:08:45;;;;;;;125.70;64.00;;;;;;;2.59;72.35;99425.79;234567;211;136650;-55
2023/12/07 17:13:48;;;;;;;139.00;67.90;;;;;;;2.56;72.22;99427.27;234072;213;145730;-53
2023/12/07 17:18:54;;;;;;;142.40;69.00;;;;;;;2.54;72.41;99422.55;233897;211;139267;-53
2023/12/07 17:24:00;;;;;;;130.40;69.30;;;;;;;2.51;72.45;99421.41;234322;212;136551;-55
2023/12/07 17:29:04;;;;;;;128.60;68.90;;;;;;;2.49;72.41;99423.39;234386;212;145783;-54
2023/12/07 17:34:07;;;;;;;139.50;70.80;;;;;;;2.45;72.42;99427.86;234385;211;138989;-54
2023/12/07 17:39:11;;;;;;;135.80;67.10;;;;;;;2.43;72.42;99432.29;234534;213;136803;-52
2023/12/07 17:44:14;;;;;;;138.00;68.80;;;;;;;2.43;72.53;99432.27;234544;212;146243;-55
2023/12/07 17:49:17;;;;;;;141.30;70.60;;;;;;;2.50;72.47;99430.90;233889;212;138846;-55
2023/12/07 17:54:23;;;;;;;152.90;72.90;;;;;;;2.51;72.27;99436.99;234590;212;136599;-55
2023/12/07 17:59:26;;;;;;;;;;;;;;;2.47;72.09;99437.09;234418;213;146667;-56
2023/12/07 18:04:33;;;;;;;631.40;445.80;;;;;;;2.49;72.72;99437.93;234602;212;138726;-54
2023/12/07 18:09:36;;;;;;;166.80;80.60;;;;;;;2.75;73.01;99438.19;234414;212;137263;-55
2023/12/07 18:14:40;;;;;;;149.20;75.50;;;;;;;2.75;71.71;99434.69;234561;212;147961;-57
2023/12/07 18:19:43;;;;;;;151.60;75.20;;;;;;;2.63;71.60;99438.30;234539;212;139546;-56
2023/12/07 18:24:46;;;;;;;147.70;73.80;;;;;;;2.55;71.69;99447.77;234571;207;138772;-58
2023/12/07 18:29:50;;;;;;;149.30;73.70;;;;;;;2.45;71.87;99453.06;233593;210;147553;-56
2023/12/07 18:34:53;;;;;;;143.90;70.20;;;;;;;2.36;71.96;99448.55;234194;207;138725;-57
2023/12/07 18:39:58;;;;;;;155.70;74.10;;;;;;;2.31;72.21;99440.77;233877;212;137411;-58
2023/12/07 18:45:01;;;;;;;154.60;77.10;;;;;;;2.36;72.14;99448.36;234668;212;149373;-56
2023/12/07 18:50:05;;;;;;;161.30;79.30;;;;;;;2.39;71.99;99443.40;234504;212;138758;-57
2023/12/07 18:55:09;;;;;;;154.10;78.60;;;;;;;2.38;71.86;99438.88;234487;212;136961;-56
2023/12/07 19:00:13;;;;;;;148.90;76.70;;;;;;;2.35;71.78;99438.60;234283;212;147260;-57
2023/12/07 19:05:17;;;;;;;163.10;78.50;;;;;;;2.29;71.82;99437.33;234442;212;139244;-56
2023/12/07 19:10:20;;;;;;;154.20;75.40;;;;;;;2.26;71.81;99437.21;234532;212;136841;-55
2023/12/07 19:15:23;;;;;;;145.10;73.20;;;;;;;2.17;71.81;99446.15;234450;207;147276;-57
2023/12/07 19:20:26;;;;;;;166.40;82.80;;;;;;;2.36;73.93;99442.58;234545;210;140521;-63
2023/12/07 19:25:30;;;;;;;155.50;75.10;;;;;;;2.57;71.90;99442.30;234454;212;137840;-63
2023/12/07 19:30:33;;;;;;;161.90;78.60;;;;;;;2.47;71.47;99448.11;234360;214;148402;-59
2023/12/07 19:35:36;;;;;;;169.60;81.40;;;;;;;2.43;71.55;99448.91;234127;212;139639;-60
2023/12/07 19:40:41;;;;;;;161.90;79.40;;;;;;;2.40;71.42;99457.20;234473;212;137529;-60
2023/12/07 19:45:44;;;;;;;160.50;79.10;;;;;;;2.31;71.48;99457.58;234490;211;147283;-61
2023/12/07 19:50:47;;;;;;;168.30;84.40;;;;;;;2.27;71.89;99458.02;234397;207;138897;-58
2023/12/07 19:55:50;;;;;;;167.10;79.60;;;;;;;2.26;71.93;99452.27;234227;213;136815;-58
2023/12/07 20:00:54;;;;;;;165.50;79.60;;;;;;;2.25;71.98;99450.02;234193;208;148127;-58
2023/12/07 20:05:57;;;;;;;168.10;81.40;;;;;;;2.26;72.29;99447.02;234584;208;139209;-58
2023/12/07 20:11:01;;;;;;;168.90;82.60;;;;;;;2.25;72.15;99445.80;234338;210;136635;-57
2023/12/07 20:16:05;;;;;;;459.50;284.80;;;;;;;2.48;75.43;99450.02;234415;211;148414;-62
2023/12/07 20:21:08;;;;;;;166.70;80.00;;;;;;;3.24;74.27;99450.64;234402;212;140629;-58
2023/12/07 20:26:15;;;;;;;194.00;84.50;;;;;;;3.27;71.07;99449.33;234293;213;138434;-57
2023/12/07 20:31:19;;;;;;;194.70;87.90;;;;;;;3.10;70.75;99449.43;234354;207;148473;-57
2023/12/07 20:36:22;;;;;;;197.10;87.40;;;;;;;2.98;70.92;99451.12;234624;207;139752;-57
2023/12/07 20:41:25;;;;;;;204.00;89.60;;;;;;;2.84;71.12;99456.89;234313;213;138950;-57
2023/12/07 20:46:29;;;;;;;189.70;85.50;;;;;;;2.76;71.29;99462.86;234346;215;147786;-58
2023/12/07 20:51:32;;;;;;;194.00;86.70;;;;;;;2.62;71.43;99460.75;234433;211;138978;-59
2023/12/07 20:56:41;;;;;;;210.80;86.70;;;;;;;2.48;71.79;99465.77;234455;211;137613;-57
2023/12/07 21:01:46;;;;;;;193.50;84.90;;;;;;;2.40;72.16;99464.39;233788;210;147805;-58
2023/12/07 21:06:49;;;;;;;201.00;86.70;;;;;;;2.31;72.50;99465.09;234478;214;139660;-58
2023/12/07 21:11:52;;;;;;;198.30;85.00;;;;;;;2.28;72.73;99463.42;234574;213;139651;-60
2023/12/07 21:16:55;;;;;;;377.90;190.30;;;;;;;2.33;74.26;99466.83;234436;214;149008;-59
2023/12/07 21:21:59;;;;;;;229.10;92.20;;;;;;;2.84;75.35;99466.17;234339;208;138870;-59
2023/12/07 21:27:02;;;;;;;221.80;92.70;;;;;;;3.06;72.71;99465.83;234458;207;137508;-59
2023/12/07 21:32:06;;;;;;;231.60;94.70;;;;;;;2.92;72.13;99464.59;234650;212;147944;-57
2023/12/07 21:37:10;;;;;;;229.20;93.90;;;;;;;2.81;72.22;99476.59;234403;212;140173;-58
2023/12/07 21:42:13;;;;;;;207.60;88.00;;;;;;;2.72;72.30;99480.83;234744;207;137830;-59
2023/12/07 21:47:16;;;;;;;219.70;89.90;;;;;;;2.64;72.47;99484.33;234728;214;147652;-58
2023/12/07 21:52:21;;;;;;;225.40;91.20;;;;;;;2.57;72.63;99483.62;234656;214;138779;-58
2023/12/07 21:57:24;;;;;;;220.90;87.30;;;;;;;2.54;72.84;99483.52;234053;213;137596;-60
2023/12/07 22:02:28;;;;;;;235.30;89.30;;;;;;;2.48;73.12;99485.58;234387;212;147363;-59
2023/12/07 22:07:31;;;;;;;230.70;89.50;;;;;;;2.44;73.20;99483.40;234259;212;139063;-57
2023/12/07 22:12:35;;;;;;;233.80;90.20;;;;;;;2.40;73.57;99478.77;234692;212;137572;-58
2023/12/07 22:17:39;;;;;;;224.20;89.00;;;;;;;2.41;73.57;99476.29;234429;214;148832;-58
2023/12/07 22:22:45;;;;;;;237.70;97.00;;;;;;;2.47;73.69;99466.34;234365;214;139642;-57
2023/12/07 22:27:48;;;;;;;239.80;96.90;;;;;;;2.52;73.57;99459.04;234407;212;136618;-58
2023/12/07 22:32:51;;;;;;;228.90;95.10;;;;;;;2.53;73.24;99462.88;234667;214;148351;-56
2023/12/07 22:37:57;;;;;;;218.80;94.10;;;;;;;2.50;73.13;99462.41;234429;215;139592;-55
2023/12/07 22:43:00;;;;;;;;;;;;;;;2.51;73.16;99466.41;234231;214;137680;-57
2023/12/07 22:48:05;;;;;;;229.80;95.30;;;;;;;2.47;73.08;99468.60;234625;214;148320;-57
2023/12/07 22:53:09;;;;;;;;;;;;;;;2.46;73.22;99471.09;234554;215;138874;-56
2023/12/07 22:58:12;;;;;;;226.90;92.40;;;;;;;2.47;73.22;99470.38;234440;214;132260;-58
2023/12/07 23:03:16;;;;;;;228.80;95.20;;;;;;;2.47;73.26;99463.54;234416;213;148632;-57
2023/12/07 23:08:19;;;;;;;225.50;90.60;;;;;;;2.45;73.18;99451.67;234512;214;142057;-57
2023/12/07 23:13:22;;;;;;;234.20;93.70;;;;;;;2.44;73.42;99437.34;234739;214;137331;-58